createdAt,value
2022-08-22T00:01:02.572Z,100521.94
2022-08-22T00:02:48.149Z,100533.19
2022-08-22T00:03:10.964Z,100528.16
2022-08-22T00:03:50.021Z,100518.59
2022-08-22T00:06:57.625Z,100515.66
2022-08-22T00:10:02.267Z,100524.50
2022-08-22T00:12:50.804Z,100513.94
2022-08-22T00:15:43.708Z,100514.34
2022-08-22T00:18:13.994Z,100518.94
2022-08-22T00:20:43.619Z,100510.94
2022-08-22T00:23:27.913Z,100516.00
2022-08-22T00:26:44.724Z,100513.09
2022-08-22T00:29:40.025Z,100521.94
2022-08-22T00:32:24.803Z,100520.25
2022-08-22T00:35:00.923Z,100519.59
2022-08-22T00:37:36.351Z,100511.75
2022-08-22T00:40:09.398Z,100510.94
2022-08-22T00:42:58.144Z,100505.66
2022-08-22T00:45:47.895Z,100500.19
2022-08-22T00:48:33.072Z,100499.34
2022-08-22T00:51:14.957Z,100494.09
2022-08-22T00:54:04.558Z,100496.03
2022-08-22T00:57:00.430Z,100509.72
2022-08-22T00:59:46.521Z,100510.13
2022-08-22T01:02:41.351Z,100511.00
2022-08-22T01:05:40.578Z,100504.69
2022-08-22T01:08:52.501Z,100511.00
2022-08-22T01:11:56.700Z,100507.22
2022-08-22T01:14:40.693Z,100505.53
2022-08-22T01:17:41.560Z,100504.88
2022-08-22T01:20:41.484Z,100499.44
2022-08-22T01:23:31.364Z,100498.38
2022-08-22T01:26:25.075Z,100493.28
2022-08-22T01:29:42.735Z,100491.00
2022-08-22T01:32:57.057Z,100482.41
2022-08-22T01:35:48.539Z,100475.28
2022-08-22T01:39:01.193Z,100476.53
2022-08-22T01:41:55.831Z,100472.75
2022-08-22T01:44:53.693Z,100473.63
2022-08-22T01:47:58.982Z,100487.31
2022-08-22T01:50:48.340Z,100477.63
2022-08-22T01:53:36.283Z,100478.66
2022-08-22T01:56:36.271Z,100477.44
2022-08-22T01:59:11.122Z,100468.75
2022-08-22T02:01:51.825Z,100463.13
2022-08-22T02:04:48.819Z,100467.31
2022-08-22T02:07:31.827Z,100455.13
2022-08-22T02:10:23.703Z,100453.50
2022-08-22T02:13:13.696Z,100451.41
2022-08-22T02:15:40.428Z,100439.84
2022-08-22T02:18:07.231Z,100436.94
2022-08-22T02:20:56.432Z,100438.22
2022-08-22T02:23:56.834Z,100434.88
2022-08-22T02:26:50.322Z,100434.50
2022-08-22T02:29:52.884Z,100443.75
2022-08-22T02:32:36.928Z,100439.75
2022-08-22T02:35:12.919Z,100433.88
2022-08-22T02:37:54.692Z,100440.84
2022-08-22T02:40:35.959Z,100439.59
2022-08-22T02:43:20.923Z,100437.28
2022-08-22T02:45:58.943Z,100446.53
2022-08-22T02:48:34.601Z,100437.94
2022-08-22T02:51:26.037Z,100447.16
2022-08-22T02:54:09.109Z,100446.75
2022-08-22T02:56:45.746Z,100454.75
2022-08-22T02:59:24.112Z,100448.44
2022-08-22T03:01:51.896Z,100441.06
2022-08-22T03:04:30.789Z,100440.00
2022-08-22T03:07:06.307Z,100428.44
2022-08-22T03:09:45.932Z,100428.69
2022-08-22T03:12:21.654Z,100433.94
2022-08-22T03:15:21.273Z,100430.16
2022-08-22T03:18:15.041Z,100431.63
2022-08-22T03:21:14.189Z,100426.16
2022-08-22T03:23:57.108Z,100434.16
2022-08-22T03:26:47.168Z,100441.34
2022-08-22T03:29:29.208Z,100442.75
2022-08-22T03:32:13.468Z,100435.41
2022-08-22T03:35:09.855Z,100430.81
2022-08-22T03:37:44.551Z,100423.63
2022-08-22T03:40:31.447Z,100419.44
2022-08-22T03:43:29.070Z,100421.56
2022-08-22T03:46:18.346Z,100425.13
2022-08-22T03:49:22.310Z,100416.53
2022-08-22T03:52:01.681Z,100416.94
2022-08-22T03:54:56.383Z,100410.44
2022-08-22T03:58:07.401Z,100422.41
2022-08-22T04:01:11.642Z,100410.63
2022-08-22T04:04:01.624Z,100423.03
2022-08-22T04:06:53.732Z,100415.88
2022-08-22T04:09:53.695Z,100422.19
2022-08-22T04:12:55.192Z,100411.69
2022-08-22T04:16:14.750Z,100415.06
2022-08-22T04:18:56.724Z,100404.13
2022-08-22T04:21:29.861Z,100408.13
2022-08-22T04:24:13.069Z,100396.97
2022-08-22T04:26:46.375Z,100399.09
2022-08-22T04:29:26.971Z,100395.28
2022-08-22T04:32:09.800Z,100379.97
2022-08-22T04:35:24.211Z,100386.03
2022-08-22T04:38:11.585Z,100387.28
2022-08-22T04:41:06.903Z,100386.91
2022-08-22T04:43:42.704Z,100378.06
2022-08-22T04:46:49.749Z,100372.38
2022-08-22T04:49:34.629Z,100375.97
2022-08-22T04:52:07.623Z,100370.91
2022-08-22T04:55:30.528Z,100369.88
2022-08-22T04:58:19.730Z,100375.97
2022-08-22T05:01:17.059Z,100364.41
2022-08-22T05:04:04.016Z,100362.97
2022-08-22T05:06:34.387Z,100359.56
2022-08-22T05:09:07.574Z,100357.06
2022-08-22T05:11:37.344Z,100354.94
2022-08-22T05:14:15.493Z,100354.13
2022-08-22T05:16:46.587Z,100349.94
2022-08-22T05:19:25.064Z,100342.16
2022-08-22T05:21:57.577Z,100336.91
2022-08-22T05:24:37.618Z,100338.56
2022-08-22T05:27:15.737Z,100349.06
2022-08-22T05:29:47.727Z,100345.50
2022-08-22T05:32:32.714Z,100346.75
2022-08-22T05:35:03.365Z,100344.00
2022-08-22T05:37:51.851Z,100354.50
2022-08-22T05:40:25.563Z,100356.19
2022-08-22T05:42:55.479Z,100354.28
2022-08-22T05:45:24.118Z,100364.13
2022-08-22T05:48:11.657Z,100369.19
2022-08-22T05:50:50.418Z,100376.28
2022-08-22T05:53:29.339Z,100374.56
2022-08-22T05:56:15.970Z,100370.25
2022-08-22T05:58:51.882Z,100358.94
2022-08-22T06:01:35.636Z,100367.25
2022-08-22T06:04:11.900Z,100368.03
2022-08-22T06:07:06.697Z,100376.22
2022-08-22T06:09:48.855Z,100379.16
2022-08-22T06:12:29.545Z,100380.66
2022-08-22T06:15:24.372Z,100381.25
2022-08-22T06:17:57.911Z,100377.03
2022-08-22T06:20:34.128Z,100383.59
2022-08-22T06:23:03.266Z,100382.53
2022-08-22T06:25:37.847Z,100375.16
2022-08-22T06:28:09.935Z,100380.84
2022-08-22T06:30:39.734Z,100379.34
2022-08-22T06:33:17.416Z,100378.44
2022-08-22T06:36:10.840Z,100376.53
2022-08-22T06:39:06.144Z,100375.59
2022-08-22T06:41:42.573Z,100371.91
2022-08-22T06:44:14.211Z,100372.00
2022-08-22T06:46:43.569Z,100367.75
2022-08-22T06:49:11.575Z,100370.06
2022-08-22T06:51:39.512Z,100385.88
2022-08-22T06:54:15.905Z,100378.72
2022-08-22T06:56:47.109Z,100379.19
2022-08-22T06:59:19.372Z,100378.72
2022-08-22T07:01:46.171Z,100371.97
2022-08-22T07:04:13.387Z,100392.69
2022-08-22T07:06:46.503Z,100377.97
2022-08-22T07:09:35.084Z,100373.59
2022-08-22T07:12:11.194Z,100373.22
2022-08-22T07:14:52.215Z,100366.91
2022-08-22T07:17:25.729Z,100358.00
2022-08-22T07:20:21.660Z,100351.91
2022-08-22T07:22:54.786Z,100352.34
2022-08-22T07:25:24.459Z,100335.13
2022-08-22T07:28:03.878Z,100350.69
2022-08-22T07:30:59.799Z,100341.75
2022-08-22T07:33:47.064Z,100344.50
2022-08-22T07:36:49.131Z,100360.41
2022-08-22T07:39:53.789Z,100360.28
2022-08-22T07:45:49.649Z,100345.97
2022-08-22T07:48:59.487Z,100328.69
2022-08-22T07:51:42.688Z,100335.31
2022-08-22T07:54:14.653Z,100331.97
2022-08-22T07:57:13.617Z,100327.97
2022-08-22T07:59:52.220Z,100333.72
2022-08-22T08:02:20.759Z,100342.19
2022-08-22T08:04:52.104Z,100327.63
2022-08-22T08:07:25.256Z,100345.53
2022-08-22T08:10:12.767Z,100334.84
2022-08-22T08:12:54.159Z,100335.13
2022-08-22T08:15:32.181Z,100335.59
2022-08-22T08:18:05.634Z,100335.28
2022-08-22T08:20:36.294Z,100329.50
2022-08-22T08:23:07.264Z,100329.69
2022-08-22T08:25:53.463Z,100330.56
2022-08-22T08:28:34.545Z,100333.34
2022-08-22T08:31:19.177Z,100329.03
2022-08-22T08:33:50.752Z,100329.72
2022-08-22T08:36:54.197Z,100334.25
2022-08-22T08:39:37.104Z,100330.53
2022-08-22T08:43:13.544Z,100318.84
2022-08-22T08:46:07.711Z,100325.81
2022-08-22T08:48:55.647Z,100320.13
2022-08-22T08:52:08.193Z,100313.03
2022-08-22T08:55:22.591Z,100320.84
2022-08-22T08:58:27.178Z,100325.28
2022-08-22T09:01:07.207Z,100317.69
2022-08-22T09:04:14.953Z,100322.56
2022-08-22T09:07:40.244Z,100318.19
2022-08-22T09:10:41.603Z,100310.72
2022-08-22T09:13:27.369Z,100311.88
2022-08-22T09:16:11.296Z,100314.50
2022-08-22T09:18:40.864Z,100302.72
2022-08-22T09:21:31.282Z,100302.25
2022-08-22T09:24:55.548Z,100300.91
2022-08-22T09:28:28.399Z,100296.84
2022-08-22T09:31:44.759Z,100299.91
2022-08-22T09:34:38.093Z,100301.81
2022-08-22T09:37:26.192Z,100295.97
2022-08-22T09:40:13.393Z,100298.53
2022-08-22T09:43:19.841Z,100300.63
2022-08-22T09:46:31.994Z,100298.72
2022-08-22T09:49:13.365Z,100291.91
2022-08-22T09:51:47.320Z,100291.63
2022-08-22T09:54:23.656Z,100276.16
2022-08-22T09:57:02.441Z,100278.53
2022-08-22T09:59:43.126Z,100268.06
2022-08-22T10:02:27.920Z,100261.75
2022-08-22T10:05:01.315Z,100268.66
2022-08-22T10:08:00.695Z,100258.16
2022-08-22T10:11:11.964Z,100257.03
2022-08-22T10:14:04.210Z,100252.88
2022-08-22T10:16:53.016Z,100242.13
2022-08-22T10:19:41.300Z,100241.09
2022-08-22T10:22:47.465Z,100229.47
2022-08-22T10:25:43.201Z,100237.28
2022-08-22T10:28:16.090Z,100242.38
2022-08-22T10:31:23.840Z,100226.41
2022-08-22T10:34:13.593Z,100239.78
2022-08-22T10:37:05.029Z,100236.50
2022-08-22T10:40:13.349Z,100238.19
2022-08-22T10:43:12.217Z,100233.75
2022-08-22T10:45:45.445Z,100236.25
2022-08-22T10:48:12.263Z,100237.38
2022-08-22T10:50:47.727Z,100234.31
2022-08-22T10:53:30.488Z,100237.59
2022-08-22T10:56:13.684Z,100233.75
2022-08-22T10:59:03.913Z,100238.47
2022-08-22T11:01:42.016Z,100237.06
2022-08-22T11:04:39.481Z,100234.31
2022-08-22T11:07:50.105Z,100234.91
2022-08-22T11:10:31.794Z,100222.72
2022-08-22T11:13:43.374Z,100210.00
2022-08-22T11:16:16.407Z,100227.72
2022-08-22T11:19:03.079Z,100222.72
2022-08-22T11:21:46.111Z,100208.31
2022-08-22T11:25:28.644Z,100213.75
2022-08-22T11:28:28.816Z,100202.59
2022-08-22T11:31:07.291Z,100204.81
2022-08-22T11:33:52.358Z,100205.34
2022-08-22T11:36:46.729Z,100205.31
2022-08-22T11:39:23.159Z,100209.72
2022-08-22T11:42:47.464Z,100200.19
2022-08-22T11:45:23.188Z,100200.19
2022-08-22T11:48:12.831Z,100198.53
2022-08-22T11:50:57.475Z,100201.38
2022-08-22T11:54:03.637Z,100204.72
2022-08-22T11:56:43.692Z,100202.56
2022-08-22T11:59:43.008Z,100198.13
2022-08-22T12:02:54.390Z,100209.28
2022-08-22T12:05:30.433Z,100199.63
2022-08-22T12:08:21.016Z,100195.94
2022-08-22T12:10:58.055Z,100197.03
2022-08-22T12:13:51.024Z,100194.88
2022-08-22T12:17:01.080Z,100195.19
2022-08-22T12:20:12.571Z,100199.94
2022-08-22T12:22:51.641Z,100191.94
2022-08-22T12:25:51.608Z,100196.66
2022-08-22T12:29:16.710Z,100194.22
2022-08-22T12:31:58.996Z,100191.19
2022-08-22T12:34:46.988Z,100188.41
2022-08-22T12:37:16.999Z,100184.53
2022-08-22T12:40:11.694Z,100182.03
2022-08-22T12:43:06.703Z,100178.44
2022-08-22T12:45:57.468Z,100170.34
2022-08-22T12:48:54.432Z,100172.00
2022-08-22T12:51:55.779Z,100169.81
2022-08-22T12:54:47.610Z,100172.84
2022-08-22T12:57:42.368Z,100180.59
2022-08-22T13:00:26.754Z,100183.66
2022-08-22T13:02:55.342Z,100180.06
2022-08-22T13:05:28.562Z,100184.53
2022-08-22T13:08:04.329Z,100172.63
2022-08-22T13:10:41.575Z,100172.91
2022-08-22T13:13:13.824Z,100173.41
2022-08-22T13:15:54.002Z,100176.13
2022-08-22T13:18:29.773Z,100183.63
2022-08-22T13:21:02.895Z,100185.78
2022-08-22T13:23:41.911Z,100186.81
2022-08-22T13:26:34.000Z,100195.72
2022-08-22T13:29:26.141Z,100199.94
2022-08-22T13:32:03.732Z,100197.22
2022-08-22T13:34:49.108Z,100203.66
2022-08-22T13:37:24.753Z,100205.91
2022-08-22T13:40:01.113Z,100196.97
2022-08-22T13:42:32.863Z,100191.97
2022-08-22T13:45:11.736Z,100189.00
2022-08-22T13:47:52.656Z,100195.06
2022-08-22T13:50:35.927Z,100186.16
2022-08-22T13:53:39.536Z,100186.06
2022-08-22T13:56:17.905Z,100189.22
2022-08-22T13:58:49.719Z,100184.53
2022-08-22T14:01:31.304Z,100179.06
2022-08-22T14:04:35.778Z,100181.84
2022-08-22T14:07:06.214Z,100181.97
2022-08-22T14:10:07.436Z,100177.94
2022-08-22T14:12:57.595Z,100177.28
2022-08-22T14:15:45.509Z,100174.69
2022-08-22T14:18:30.257Z,100178.44
2022-08-22T14:21:47.845Z,100180.31
2022-08-22T14:24:19.837Z,100172.53
2022-08-22T14:26:57.808Z,100176.69
2022-08-22T14:29:31.774Z,100177.00
2022-08-22T14:32:22.669Z,100175.56
2022-08-22T14:35:01.852Z,100165.00
2022-08-22T14:37:40.369Z,100169.59
2022-08-22T14:40:29.865Z,100165.19
2022-08-22T14:43:40.437Z,100161.31
2022-08-22T14:46:15.543Z,100163.56
2022-08-22T14:49:05.480Z,100166.34
2022-08-22T14:51:33.856Z,100147.91
2022-08-22T14:54:21.354Z,100152.31
2022-08-22T14:56:50.743Z,100151.69
2022-08-22T14:59:41.037Z,100148.59
2022-08-22T15:02:14.587Z,100149.41
2022-08-22T15:04:48.689Z,100146.91
2022-08-22T15:07:32.905Z,100149.31
2022-08-22T15:10:20.773Z,100147.72
2022-08-22T15:12:56.322Z,100141.31
2022-08-22T15:15:49.409Z,100137.22
2022-08-22T15:18:35.695Z,100140.00
2022-08-22T15:21:21.084Z,100136.13
2022-08-22T15:23:56.674Z,100127.63
2022-08-22T15:26:36.515Z,100127.84
2022-08-22T15:29:25.740Z,100128.16
2022-08-22T15:31:57.989Z,100131.44
2022-08-22T15:34:40.458Z,100141.59
2022-08-22T15:37:16.741Z,100127.53
2022-08-22T15:40:14.423Z,100127.59
2022-08-22T15:42:51.519Z,100138.16
2022-08-22T15:45:30.968Z,100120.53
2022-08-22T15:48:07.063Z,100118.00
2022-08-22T15:50:41.919Z,100119.09
2022-08-22T15:53:08.784Z,100118.91
2022-08-22T15:55:37.147Z,100117.03
2022-08-22T15:58:13.308Z,100110.69
2022-08-22T16:01:24.149Z,100111.19
2022-08-22T16:04:01.124Z,100111.59
2022-08-22T16:06:49.260Z,100115.16
2022-08-22T16:09:39.628Z,100113.53
2022-08-22T16:12:25.420Z,100114.91
2022-08-22T16:14:54.008Z,100106.38
2022-08-22T16:17:26.988Z,100105.16
2022-08-22T16:20:19.359Z,100106.19
2022-08-22T16:22:56.619Z,100105.16
2022-08-22T16:25:45.171Z,100102.41
2022-08-22T16:28:54.220Z,100097.47
2022-08-22T16:31:35.952Z,100095.88
2022-08-22T16:34:17.944Z,100087.63
2022-08-22T16:37:23.521Z,100083.75
2022-08-22T16:40:01.038Z,100089.31
2022-08-22T16:42:41.556Z,100092.16
2022-08-22T16:45:18.752Z,100091.00
2022-08-22T16:47:54.485Z,100089.38
2022-08-22T16:50:36.179Z,100088.78
2022-08-22T16:53:21.435Z,100080.78
2022-08-22T16:56:14.822Z,100077.78
2022-08-22T16:59:19.656Z,100085.44
2022-08-22T17:02:12.253Z,100084.19
2022-08-22T17:05:21.968Z,100090.25
2022-08-22T17:08:03.654Z,100089.63
2022-08-22T17:10:59.901Z,100089.44
2022-08-22T17:13:42.998Z,100095.22
2022-08-22T17:16:39.199Z,100084.13
2022-08-22T17:19:09.967Z,100086.84
2022-08-22T17:21:51.725Z,100084.03
2022-08-22T17:25:15.341Z,100094.50
2022-08-22T17:27:49.791Z,100084.50
2022-08-22T17:30:35.660Z,100075.69
2022-08-22T17:33:20.435Z,100072.59
2022-08-22T17:36:26.399Z,100071.22
2022-08-22T17:39:45.006Z,100075.78
2022-08-22T17:42:51.195Z,100075.78
2022-08-22T17:45:39.494Z,100083.69
2022-08-22T17:48:32.386Z,100089.38
2022-08-22T17:51:28.317Z,100075.84
2022-08-22T17:54:06.460Z,100070.97
2022-08-22T17:56:46.482Z,100065.13
2022-08-22T17:59:20.701Z,100071.19
2022-08-22T18:02:07.764Z,100070.97
2022-08-22T18:05:00.353Z,100070.91
2022-08-22T18:07:45.193Z,100082.72
2022-08-22T18:10:14.607Z,100087.66
2022-08-22T18:13:07.759Z,100086.19
2022-08-22T18:15:49.757Z,100084.75
2022-08-22T18:18:44.988Z,100084.44
2022-08-22T18:21:27.704Z,100085.34
2022-08-22T18:24:13.727Z,100088.34
2022-08-22T18:26:58.869Z,100076.34
2022-08-22T18:29:54.929Z,100078.03
2022-08-22T18:32:40.627Z,100082.56
2022-08-22T18:35:20.921Z,100085.31
2022-08-22T18:37:58.451Z,100086.44
2022-08-22T18:40:31.699Z,100084.75
2022-08-22T18:43:29.361Z,100087.16
2022-08-22T18:46:03.860Z,100088.84
2022-08-22T18:48:34.056Z,100089.59
2022-08-22T18:51:38.444Z,100095.25
2022-08-22T18:54:05.436Z,100091.84
2022-08-22T18:56:50.497Z,100091.59
2022-08-22T18:59:25.054Z,100097.13
2022-08-22T19:02:19.851Z,100101.19
2022-08-22T19:05:28.287Z,100098.53
2022-08-22T19:08:10.321Z,100109.78
2022-08-22T19:11:20.595Z,100108.72
2022-08-22T19:14:29.991Z,100107.03
2022-08-22T19:17:18.148Z,100114.22
2022-08-22T19:20:45.519Z,100119.16
2022-08-22T19:23:43.742Z,100105.38
2022-08-22T19:26:26.162Z,100121.13
2022-08-22T19:29:25.170Z,100116.88
2022-08-22T19:32:00.102Z,100111.72
2022-08-22T19:34:31.134Z,100116.81
2022-08-22T19:37:32.015Z,100124.81
2022-08-22T19:40:05.989Z,100126.75
2022-08-22T19:42:37.320Z,100121.47
2022-08-22T19:45:18.647Z,100122.31
2022-08-22T19:48:05.549Z,100122.59
2022-08-22T19:50:36.980Z,100119.47
2022-08-22T19:53:24.521Z,100113.97
2022-08-22T19:56:21.869Z,100111.22
2022-08-22T19:59:15.590Z,100120.44
2022-08-22T20:01:58.429Z,100120.88
2022-08-22T20:05:02.703Z,100116.97
2022-08-22T20:08:39.944Z,100123.16
2022-08-22T20:12:14.626Z,100123.81
2022-08-22T20:14:46.709Z,100135.66
2022-08-22T20:17:42.145Z,100127.31
2022-08-22T20:20:36.143Z,100130.81
2022-08-22T20:23:23.137Z,100135.78
2022-08-22T20:25:53.220Z,100136.31
2022-08-22T20:28:32.084Z,100143.97
2022-08-22T20:31:04.503Z,100142.31
2022-08-22T20:33:41.745Z,100143.38
2022-08-22T20:36:18.505Z,100136.31
2022-08-22T20:39:03.965Z,100143.22
2022-08-22T20:41:39.539Z,100149.81
2022-08-22T20:44:23.536Z,100141.06
2022-08-22T20:47:01.215Z,100146.81
2022-08-22T20:49:53.299Z,100146.81
2022-08-22T20:52:25.995Z,100148.50
2022-08-22T20:55:31.235Z,100158.91
2022-08-22T20:58:07.011Z,100153.41
2022-08-22T21:00:39.884Z,100147.31
2022-08-22T21:03:36.679Z,100140.47
2022-08-22T21:06:17.905Z,100145.97
2022-08-22T21:08:47.549Z,100145.97
2022-08-22T21:11:40.844Z,100137.47
2022-08-22T21:14:27.128Z,100137.38
2022-08-22T21:16:54.098Z,100137.97
2022-08-22T21:19:30.109Z,100134.63
2022-08-22T21:22:15.833Z,100126.28
2022-08-22T21:24:43.017Z,100135.72
2022-08-22T21:27:21.696Z,100128.53
2022-08-22T21:29:48.595Z,100135.44
2022-08-22T21:32:37.340Z,100132.09
2022-08-22T21:35:23.224Z,100136.78
2022-08-22T21:37:50.385Z,100143.03
2022-08-22T21:40:28.931Z,100144.56
2022-08-22T21:43:34.818Z,100145.91
2022-08-22T21:46:01.712Z,100151.75
2022-08-22T21:49:15.812Z,100147.59
2022-08-22T21:51:46.086Z,100149.75
2022-08-22T21:54:40.078Z,100153.22
2022-08-22T21:57:09.874Z,100154.63
2022-08-22T21:59:52.034Z,100144.75
2022-08-22T22:02:36.445Z,100151.31
2022-08-22T22:05:18.980Z,100153.81
2022-08-22T22:07:47.675Z,100150.00
2022-08-22T22:10:19.146Z,100149.75
2022-08-22T22:12:49.074Z,100156.66
2022-08-22T22:15:20.144Z,100156.19
2022-08-22T22:17:47.089Z,100165.28
2022-08-22T22:20:16.388Z,100164.44
2022-08-22T22:22:45.882Z,100172.78
2022-08-22T22:25:40.286Z,100167.28
2022-08-22T22:28:11.088Z,100167.28
2022-08-22T22:30:38.522Z,100167.28
2022-08-22T22:33:06.565Z,100168.38
2022-08-22T22:35:34.225Z,100169.78
2022-08-22T22:38:01.592Z,100160.69
2022-08-22T22:40:28.970Z,100164.53
2022-08-22T22:42:55.833Z,100161.75
2022-08-22T22:45:22.719Z,100166.78
2022-08-22T22:47:49.552Z,100160.69
2022-08-22T22:50:17.696Z,100177.78
2022-08-22T22:52:45.333Z,100173.00
2022-08-22T22:55:24.719Z,100181.78
2022-08-22T22:57:58.927Z,100183.69
2022-08-22T23:00:32.313Z,100180.09
2022-08-22T23:03:05.127Z,100167.09
2022-08-22T23:05:33.296Z,100175.56
2022-08-22T23:08:00.967Z,100183.25
2022-08-22T23:10:30.693Z,100179.03
2022-08-22T23:12:58.197Z,100185.50
2022-08-22T23:15:25.831Z,100190.16
2022-08-22T23:17:52.823Z,100198.06
2022-08-22T23:20:20.453Z,100200.81
2022-08-22T23:22:47.749Z,100194.25
2022-08-22T23:25:14.579Z,100198.91
2022-08-22T23:27:41.691Z,100205.50
2022-08-22T23:30:10.676Z,100210.75
2022-08-22T23:32:38.954Z,100196.66
2022-08-22T23:35:06.640Z,100190.41
2022-08-22T23:37:33.704Z,100194.50
2022-08-22T23:40:01.125Z,100197.81
2022-08-22T23:42:29.805Z,100204.16
2022-08-22T23:44:56.724Z,100200.09
2022-08-22T23:47:23.590Z,100192.09
2022-08-22T23:49:50.933Z,100185.16
2022-08-22T23:52:17.796Z,100182.03
2022-08-22T23:54:44.699Z,100173.81
2022-08-22T23:57:12.711Z,100168.22
2022-08-22T23:59:46.277Z,100160.56
